createdAt,value
2024-01-25T00:01:32.417Z,92427.34
2024-01-25T00:03:58.995Z,92429.28
2024-01-25T00:06:26.599Z,92419.56
2024-01-25T00:08:53.039Z,92429.31
2024-01-25T00:11:19.386Z,92435.44
2024-01-25T00:13:45.735Z,92433.28
2024-01-25T00:16:12.119Z,92431.03
2024-01-25T00:18:38.564Z,92435.91
2024-01-25T00:21:04.974Z,92429.47
2024-01-25T00:23:31.326Z,92421.53
2024-01-25T00:26:00.050Z,92418.75
2024-01-25T00:28:26.811Z,92415.03
2024-01-25T00:30:53.231Z,92409.91
2024-01-25T00:33:19.796Z,92405.28
2024-01-25T00:35:46.219Z,92398.97
2024-01-25T00:38:12.677Z,92403.88
2024-01-25T00:40:39.632Z,92400.59
2024-01-25T00:43:06.166Z,92404.03
2024-01-25T00:45:32.736Z,92410.22
2024-01-25T00:47:59.460Z,92404.03
2024-01-25T00:50:27.061Z,92398.09
2024-01-25T00:52:53.493Z,92398.91
2024-01-25T00:55:20.148Z,92401.63
2024-01-25T00:57:46.718Z,92395.09
2024-01-25T01:00:13.419Z,92389.22
2024-01-25T01:02:45.915Z,92390.34
2024-01-25T01:05:12.682Z,92398.09
2024-01-25T01:07:42.439Z,92410.69
2024-01-25T01:10:09.777Z,92401.69
2024-01-25T01:12:36.562Z,92398.63
2024-01-25T01:15:02.976Z,92403.75
2024-01-25T01:17:29.401Z,92397.66
2024-01-25T01:19:55.923Z,92393.59
2024-01-25T01:22:22.457Z,92392.88
2024-01-25T01:24:48.989Z,92396.16
2024-01-25T01:27:15.345Z,92403.19
2024-01-25T01:29:42.294Z,92396.69
2024-01-25T01:32:09.103Z,92395.38
2024-01-25T01:34:35.581Z,92399.41
2024-01-25T01:37:02.186Z,92398.34
2024-01-25T01:39:28.665Z,92398.63
2024-01-25T01:41:55.088Z,92400.09
2024-01-25T01:44:21.746Z,92404.81
2024-01-25T01:46:48.098Z,92393.22
2024-01-25T01:49:14.940Z,92399.88
2024-01-25T01:51:41.608Z,92393.03
2024-01-25T01:54:08.148Z,92384.75
2024-01-25T01:56:34.520Z,92376.09
2024-01-25T01:59:01.394Z,92381.19
2024-01-25T02:01:28.112Z,92381.22
2024-01-25T02:03:55.004Z,92383.28
2024-01-25T02:06:21.614Z,92381.38
2024-01-25T02:08:48.611Z,92382.97
2024-01-25T02:11:14.966Z,92373.75
2024-01-25T02:13:41.320Z,92376.56
2024-01-25T02:16:08.068Z,92379.59
2024-01-25T02:18:34.655Z,92380.84
2024-01-25T02:21:01.057Z,92379.63
2024-01-25T02:23:27.879Z,92378.09
2024-01-25T02:25:54.294Z,92371.59
2024-01-25T02:28:21.119Z,92381.53
2024-01-25T02:30:47.767Z,92375.31
2024-01-25T02:33:14.192Z,92372.78
2024-01-25T02:35:40.564Z,92375.16
2024-01-25T02:38:06.923Z,92374.16
2024-01-25T02:40:33.282Z,92372.09
2024-01-25T02:42:59.759Z,92372.38
2024-01-25T02:45:26.141Z,92370.78
2024-01-25T02:47:52.605Z,92381.91
2024-01-25T02:50:19.177Z,92372.97
2024-01-25T02:52:45.556Z,92372.94
2024-01-25T02:55:12.024Z,92373.25
2024-01-25T02:57:38.530Z,92375.41
2024-01-25T03:00:05.615Z,92370.72
2024-01-25T03:02:32.500Z,92374.53
2024-01-25T03:04:58.932Z,92358.00
2024-01-25T03:07:25.432Z,92369.31
2024-01-25T03:09:51.888Z,92371.69
2024-01-25T03:12:18.626Z,92362.06
2024-01-25T03:14:44.987Z,92361.56
2024-01-25T03:17:13.368Z,92353.00
2024-01-25T03:19:39.821Z,92359.34
2024-01-25T03:22:06.217Z,92354.25
2024-01-25T03:24:32.984Z,92353.69
2024-01-25T03:26:59.362Z,92358.06
2024-01-25T03:29:25.683Z,92353.59
2024-01-25T03:31:52.097Z,92355.41
2024-01-25T03:34:18.750Z,92349.16
2024-01-25T03:36:45.300Z,92351.22
2024-01-25T03:39:11.699Z,92353.63
2024-01-25T03:41:38.123Z,92348.72
2024-01-25T03:44:04.631Z,92351.91
2024-01-25T03:46:31.038Z,92347.16
2024-01-25T03:48:57.479Z,92342.97
2024-01-25T03:51:25.169Z,92352.25
2024-01-25T03:53:53.707Z,92342.09
2024-01-25T03:56:20.156Z,92343.34
2024-01-25T03:58:47.555Z,92342.44
2024-01-25T04:01:13.973Z,92337.31
2024-01-25T04:03:40.449Z,92350.81
2024-01-25T04:06:07.022Z,92343.31
2024-01-25T04:08:33.394Z,92341.47
2024-01-25T04:10:59.744Z,92342.16
2024-01-25T04:13:26.238Z,92344.75
2024-01-25T04:15:52.757Z,92351.13
2024-01-25T04:18:19.224Z,92354.41
2024-01-25T04:20:45.713Z,92345.41
2024-01-25T04:23:12.148Z,92335.63
2024-01-25T04:25:38.554Z,92332.91
2024-01-25T04:28:05.012Z,92338.09
2024-01-25T04:30:32.891Z,92332.66
2024-01-25T04:32:59.715Z,92330.63
2024-01-25T04:35:26.298Z,92327.69
2024-01-25T04:37:52.671Z,92331.03
2024-01-25T04:40:20.332Z,92326.63
2024-01-25T04:42:46.855Z,92337.13
2024-01-25T04:45:13.201Z,92344.47
2024-01-25T04:47:40.618Z,92340.78
2024-01-25T04:50:07.326Z,92334.78
2024-01-25T04:52:33.742Z,92333.84
2024-01-25T04:55:00.175Z,92337.06
2024-01-25T04:57:26.616Z,92339.28
2024-01-25T04:59:53.031Z,92340.78
2024-01-25T05:02:19.962Z,92339.16
2024-01-25T05:04:46.778Z,92333.00
2024-01-25T05:07:13.585Z,92325.34
2024-01-25T05:09:40.069Z,92336.63
2024-01-25T05:12:06.720Z,92321.56
2024-01-25T05:14:33.072Z,92336.25
2024-01-25T05:16:59.405Z,92334.84
2024-01-25T05:19:26.648Z,92331.31
2024-01-25T05:21:53.126Z,92334.84
2024-01-25T05:24:19.483Z,92329.03
2024-01-25T05:26:45.881Z,92332.91
2024-01-25T05:29:12.285Z,92331.56
2024-01-25T05:31:38.691Z,92333.59
2024-01-25T05:34:05.321Z,92343.28
2024-01-25T05:36:31.790Z,92347.59
2024-01-25T05:38:58.299Z,92352.84
2024-01-25T05:41:24.632Z,92343.84
2024-01-25T05:43:50.969Z,92341.09
2024-01-25T05:46:17.338Z,92349.91
2024-01-25T05:48:43.823Z,92344.34
2024-01-25T05:51:10.342Z,92347.00
2024-01-25T05:53:36.697Z,92351.50
2024-01-25T05:56:05.202Z,92352.91
2024-01-25T05:58:31.809Z,92351.63
2024-01-25T06:00:58.694Z,92352.34
2024-01-25T06:03:25.146Z,92355.13
2024-01-25T06:05:51.896Z,92350.75
2024-01-25T06:08:18.629Z,92352.56
2024-01-25T06:10:45.205Z,92357.97
2024-01-25T06:13:11.828Z,92360.50
2024-01-25T06:15:39.288Z,92371.84
2024-01-25T06:18:05.846Z,92371.16
2024-01-25T06:20:32.508Z,92374.78
2024-01-25T06:22:58.967Z,92385.44
2024-01-25T06:25:25.527Z,92374.66
2024-01-25T06:27:52.227Z,92377.38
2024-01-25T06:30:20.909Z,92376.06
2024-01-25T06:32:47.343Z,92382.78
2024-01-25T06:35:13.879Z,92381.56
2024-01-25T06:37:43.298Z,92388.94
2024-01-25T06:40:16.087Z,92387.44
2024-01-25T06:42:43.794Z,92388.97
2024-01-25T06:48:37.662Z,92387.13
2024-01-25T06:51:17.958Z,92383.38
2024-01-25T06:53:44.446Z,92393.84
2024-01-25T06:56:11.063Z,92394.78
2024-01-25T06:58:37.522Z,92386.16
2024-01-25T07:01:05.964Z,92392.03
2024-01-25T07:03:33.237Z,92392.94
2024-01-25T07:06:00.255Z,92395.50
2024-01-25T07:08:27.058Z,92395.69
2024-01-25T07:10:53.471Z,92394.00
2024-01-25T07:13:22.388Z,92390.72
2024-01-25T07:15:49.161Z,92398.25
2024-01-25T07:18:15.957Z,92405.22
2024-01-25T07:20:42.818Z,92405.06
2024-01-25T07:23:09.658Z,92401.19
2024-01-25T07:25:36.194Z,92401.31
2024-01-25T07:28:03.350Z,92400.94
2024-01-25T07:30:29.918Z,92405.13
2024-01-25T07:32:56.386Z,92400.78
2024-01-25T07:35:24.850Z,92404.63
2024-01-25T07:37:58.352Z,92397.31
2024-01-25T07:40:24.977Z,92390.16
2024-01-25T07:42:51.526Z,92394.44
2024-01-25T07:45:18.705Z,92398.94
2024-01-25T07:47:45.504Z,92386.84
2024-01-25T07:57:23.012Z,92399.19
2024-01-25T07:59:49.441Z,92390.66
2024-01-25T08:02:21.087Z,92397.72
2024-01-25T08:04:48.333Z,92391.16
2024-01-25T08:07:15.016Z,92380.97
2024-01-25T08:09:55.154Z,92384.78
2024-01-25T08:12:21.563Z,92378.84
2024-01-25T08:14:48.026Z,92384.72
2024-01-25T08:17:14.799Z,92377.19
2024-01-25T08:19:41.348Z,92371.91
2024-01-25T08:22:07.895Z,92380.16
2024-01-25T08:24:34.390Z,92388.19
2024-01-25T08:27:00.876Z,92389.88
2024-01-25T08:29:27.312Z,92389.59
2024-01-25T08:31:53.765Z,92397.72
2024-01-25T08:34:20.590Z,92393.25
2024-01-25T08:36:47.128Z,92401.00
2024-01-25T08:39:13.555Z,92391.41
2024-01-25T08:41:41.937Z,92396.31
2024-01-25T08:44:08.643Z,92396.88
2024-01-25T08:46:35.163Z,92386.63
2024-01-25T08:49:02.614Z,92388.16
2024-01-25T08:51:29.261Z,92394.69
2024-01-25T08:53:55.693Z,92381.84
2024-01-25T08:56:22.144Z,92385.94
2024-01-25T08:58:49.661Z,92381.06
2024-01-25T09:01:16.291Z,92390.22
2024-01-25T09:03:42.962Z,92382.50
2024-01-25T09:06:09.646Z,92387.06
2024-01-25T09:08:39.144Z,92396.47
2024-01-25T09:11:05.949Z,92399.38
2024-01-25T09:13:33.786Z,92394.56
2024-01-25T09:16:11.664Z,92384.91
2024-01-25T09:18:38.200Z,92391.28
2024-01-25T09:21:04.786Z,92395.38
2024-01-25T09:23:31.285Z,92398.69
2024-01-25T09:25:57.806Z,92395.72
2024-01-25T09:28:26.147Z,92397.72
2024-01-25T09:30:53.242Z,92382.75
2024-01-25T09:33:20.101Z,92386.28
2024-01-25T09:35:48.994Z,92386.47
2024-01-25T09:38:16.087Z,92378.31
2024-01-25T09:40:42.731Z,92373.31
2024-01-25T09:43:09.396Z,92375.16
2024-01-25T09:45:36.125Z,92386.47
2024-01-25T09:48:05.662Z,92390.84
2024-01-25T09:50:35.026Z,92387.69
2024-01-25T09:53:01.755Z,92392.25
2024-01-25T09:55:28.396Z,92383.63
2024-01-25T09:57:56.716Z,92385.59
2024-01-25T10:00:23.307Z,92381.38
2024-01-25T10:02:50.807Z,92382.44
2024-01-25T10:05:20.504Z,92366.63
2024-01-25T10:07:47.451Z,92369.13
2024-01-25T10:10:14.305Z,92362.75
2024-01-25T10:12:44.064Z,92356.91
2024-01-25T10:15:10.931Z,92360.50
2024-01-25T10:20:12.249Z,92363.38
2024-01-25T10:22:39.994Z,92355.56
2024-01-25T10:25:12.980Z,92354.59
2024-01-25T10:27:39.571Z,92349.63
2024-01-25T10:30:07.549Z,92348.41
2024-01-25T10:32:34.323Z,92342.91
2024-01-25T10:35:00.922Z,92350.34
2024-01-25T10:37:27.621Z,92342.75
2024-01-25T10:39:55.277Z,92333.88
2024-01-25T10:42:22.092Z,92333.69
2024-01-25T10:44:48.894Z,92325.16
2024-01-25T10:47:15.960Z,92331.28
2024-01-25T10:49:42.440Z,92333.94
2024-01-25T10:52:09.052Z,92332.03
2024-01-25T10:54:35.461Z,92329.91
2024-01-25T10:57:02.179Z,92334.28
2024-01-25T10:59:28.788Z,92327.53
2024-01-25T11:01:55.470Z,92323.28
2024-01-25T11:04:22.252Z,92312.63
2024-01-25T11:06:48.928Z,92314.06
2024-01-25T11:09:17.341Z,92303.28
2024-01-25T11:11:45.006Z,92295.63
2024-01-25T11:14:15.033Z,92291.22
2024-01-25T11:16:45.882Z,92284.50
2024-01-25T11:19:18.857Z,92282.19
2024-01-25T11:21:46.181Z,92279.00
2024-01-25T11:24:13.111Z,92269.97
2024-01-25T11:26:39.474Z,92262.72
2024-01-25T11:29:05.863Z,92262.06
2024-01-25T11:31:32.578Z,92252.16
2024-01-25T11:34:00.114Z,92251.19
2024-01-25T11:36:26.802Z,92249.97
2024-01-25T11:38:53.282Z,92249.41
2024-01-25T11:41:19.854Z,92251.00
2024-01-25T11:43:46.252Z,92242.34
2024-01-25T11:46:13.818Z,92234.34
2024-01-25T11:48:41.973Z,92232.41
2024-01-25T11:51:10.240Z,92227.81
2024-01-25T11:53:36.619Z,92213.28
2024-01-25T11:56:03.009Z,92204.03
2024-01-25T11:58:33.000Z,92203.50
2024-01-25T12:01:01.144Z,92201.63
2024-01-25T12:03:27.584Z,92203.41
2024-01-25T12:05:54.128Z,92191.84
2024-01-25T12:08:20.718Z,92188.66
2024-01-25T12:10:47.229Z,92184.63
2024-01-25T12:13:13.638Z,92188.66
2024-01-25T12:15:42.135Z,92188.16
2024-01-25T12:18:09.677Z,92182.41
2024-01-25T12:20:36.756Z,92181.59
2024-01-25T12:23:03.378Z,92168.69
2024-01-25T12:25:29.783Z,92167.63
2024-01-25T12:27:56.248Z,92179.16
2024-01-25T12:30:23.545Z,92174.09
2024-01-25T12:32:50.977Z,92167.59
2024-01-25T12:35:18.449Z,92166.28
2024-01-25T12:37:44.940Z,92172.09
2024-01-25T12:40:11.966Z,92175.06
2024-01-25T12:42:38.441Z,92165.72
2024-01-25T12:45:05.120Z,92169.00
2024-01-25T12:47:32.009Z,92168.25
2024-01-25T12:49:58.843Z,92163.88
2024-01-25T12:52:25.547Z,92146.69
2024-01-25T12:54:52.108Z,92144.75
2024-01-25T12:57:18.622Z,92143.50
2024-01-25T12:59:46.115Z,92149.00
2024-01-25T13:02:12.626Z,92142.22
2024-01-25T13:04:39.464Z,92146.88
2024-01-25T13:07:07.008Z,92141.13
2024-01-25T13:09:35.070Z,92145.72
2024-01-25T13:12:02.058Z,92139.69
2024-01-25T13:14:28.431Z,92134.53
2024-01-25T13:16:54.780Z,92138.22
2024-01-25T13:19:21.183Z,92139.06
2024-01-25T13:21:47.590Z,92141.81
2024-01-25T13:24:14.056Z,92133.84
2024-01-25T13:26:40.440Z,92132.41
2024-01-25T13:29:06.832Z,92136.31
2024-01-25T13:31:33.372Z,92129.03
2024-01-25T13:34:00.035Z,92126.28
2024-01-25T13:36:26.495Z,92134.53
2024-01-25T13:38:52.929Z,92132.22
2024-01-25T13:41:19.475Z,92125.59
2024-01-25T13:43:45.829Z,92125.91
2024-01-25T13:46:12.176Z,92121.69
2024-01-25T13:48:38.728Z,92133.81
2024-01-25T13:51:05.239Z,92121.31
2024-01-25T13:53:32.234Z,92111.22
2024-01-25T13:55:58.710Z,92113.72
2024-01-25T13:58:25.074Z,92119.13
2024-01-25T14:00:51.490Z,92112.59
2024-01-25T14:03:18.217Z,92115.44
2024-01-25T14:05:44.710Z,92103.91
2024-01-25T14:08:11.240Z,92099.31
2024-01-25T14:10:38.083Z,92092.41
2024-01-25T14:13:04.577Z,92088.53
2024-01-25T14:15:31.048Z,92101.44
2024-01-25T14:17:57.495Z,92086.91
2024-01-25T14:20:24.083Z,92082.94
2024-01-25T14:22:50.840Z,92079.28
2024-01-25T14:25:17.665Z,92080.50
2024-01-25T14:27:44.091Z,92086.47
2024-01-25T14:30:10.839Z,92078.38
2024-01-25T14:32:37.529Z,92082.34
2024-01-25T14:35:04.839Z,92080.75
2024-01-25T14:37:32.594Z,92085.97
2024-01-25T14:40:09.063Z,92084.97
2024-01-25T14:42:45.494Z,92085.53
2024-01-25T14:45:11.913Z,92092.25
2024-01-25T14:47:38.301Z,92081.28
2024-01-25T14:50:04.918Z,92086.97
2024-01-25T14:52:34.886Z,92084.25
2024-01-25T14:55:02.177Z,92078.47
2024-01-25T14:57:28.712Z,92082.69
2024-01-25T14:59:55.090Z,92077.72
2024-01-25T15:02:21.654Z,92072.00
2024-01-25T15:04:48.087Z,92064.09
2024-01-25T15:07:18.486Z,92066.88
2024-01-25T15:09:44.910Z,92065.97
2024-01-25T15:12:11.430Z,92073.38
2024-01-25T15:14:37.824Z,92073.47
2024-01-25T15:17:04.287Z,92067.13
2024-01-25T15:19:30.758Z,92064.47
2024-01-25T15:21:57.321Z,92073.00
2024-01-25T15:24:23.755Z,92073.31
2024-01-25T15:26:50.124Z,92070.28
2024-01-25T15:29:16.543Z,92065.88
2024-01-25T15:31:42.926Z,92074.16
2024-01-25T15:34:09.462Z,92070.03
2024-01-25T15:36:36.935Z,92071.34
2024-01-25T15:39:04.624Z,92074.91
2024-01-25T15:41:31.286Z,92073.22
2024-01-25T15:43:58.383Z,92082.13
2024-01-25T15:46:24.770Z,92080.91
2024-01-25T15:48:52.992Z,92075.25
2024-01-25T15:51:19.482Z,92083.75
2024-01-25T15:53:45.954Z,92077.56
2024-01-25T15:56:12.308Z,92080.75
2024-01-25T15:58:38.644Z,92081.78
2024-01-25T16:01:05.211Z,92086.53
2024-01-25T16:03:31.693Z,92087.63
2024-01-25T16:05:58.206Z,92084.94
2024-01-25T16:08:24.655Z,92094.31
2024-01-25T16:10:51.016Z,92091.56
2024-01-25T16:13:17.396Z,92085.59
2024-01-25T16:15:43.784Z,92087.56
2024-01-25T16:18:10.331Z,92080.19
2024-01-25T16:20:36.724Z,92087.81
2024-01-25T16:23:03.395Z,92088.13
2024-01-25T16:25:31.470Z,92091.88
2024-01-25T16:27:58.114Z,92094.94
2024-01-25T16:30:24.671Z,92095.25
2024-01-25T16:32:51.093Z,92094.97
2024-01-25T16:35:17.496Z,92095.50
2024-01-25T16:37:43.826Z,92103.97
2024-01-25T16:40:10.357Z,92103.78
2024-01-25T16:42:36.768Z,92108.97
2024-01-25T16:45:03.176Z,92121.03
2024-01-25T16:47:29.590Z,92120.09
2024-01-25T16:49:56.197Z,92126.69
2024-01-25T16:52:22.614Z,92118.47
2024-01-25T16:54:49.095Z,92124.66
2024-01-25T16:57:15.502Z,92131.66
2024-01-25T16:59:41.845Z,92132.69
2024-01-25T17:02:08.187Z,92133.63
2024-01-25T17:04:34.707Z,92139.97
2024-01-25T17:07:01.178Z,92133.25
2024-01-25T17:09:27.912Z,92143.41
2024-01-25T17:11:54.305Z,92140.25
2024-01-25T17:14:20.644Z,92144.25
2024-01-25T17:16:47.011Z,92144.66
2024-01-25T17:19:13.523Z,92143.44
2024-01-25T17:21:40.022Z,92146.78
2024-01-25T17:24:07.704Z,92148.16
2024-01-25T17:26:34.073Z,92154.09
2024-01-25T17:29:01.095Z,92154.28
2024-01-25T17:31:27.444Z,92157.78
2024-01-25T17:33:54.044Z,92154.13
2024-01-25T17:36:20.572Z,92153.69
2024-01-25T17:38:46.989Z,92159.09
2024-01-25T17:41:13.413Z,92163.06
2024-01-25T17:43:40.016Z,92159.22
2024-01-25T17:46:06.666Z,92169.56
2024-01-25T17:48:34.286Z,92172.25
2024-01-25T17:51:00.801Z,92166.69
2024-01-25T17:53:27.166Z,92159.13
2024-01-25T17:55:53.559Z,92160.34
2024-01-25T17:58:19.921Z,92167.69
2024-01-25T18:00:46.391Z,92168.72
2024-01-25T18:03:12.874Z,92170.34
2024-01-25T18:05:39.287Z,92169.75
2024-01-25T18:08:05.818Z,92160.00
2024-01-25T18:10:32.185Z,92161.28
2024-01-25T18:12:58.820Z,92160.63
2024-01-25T18:15:25.414Z,92152.78
2024-01-25T18:17:51.817Z,92150.88
2024-01-25T18:20:19.033Z,92154.09
2024-01-25T18:22:45.504Z,92153.91
2024-01-25T18:25:11.879Z,92147.19
2024-01-25T18:27:38.317Z,92153.78
2024-01-25T18:30:04.963Z,92149.63
2024-01-25T18:32:31.390Z,92153.75
2024-01-25T18:34:57.892Z,92154.63
2024-01-25T18:37:24.391Z,92154.06
2024-01-25T18:39:50.818Z,92155.81
2024-01-25T18:42:17.210Z,92156.47
2024-01-25T18:44:43.621Z,92155.72
2024-01-25T18:47:11.342Z,92163.03
2024-01-25T18:49:38.244Z,92161.50
2024-01-25T18:52:04.932Z,92158.78
2024-01-25T18:54:31.431Z,92158.16
2024-01-25T18:56:57.920Z,92158.59
2024-01-25T18:59:27.164Z,92152.38
2024-01-25T19:01:54.822Z,92151.16
2024-01-25T19:04:21.805Z,92156.28
2024-01-25T19:06:55.229Z,92153.59
2024-01-25T19:09:27.974Z,92148.63
2024-01-25T19:11:54.590Z,92157.44
2024-01-25T19:14:20.953Z,92154.50
2024-01-25T19:16:50.700Z,92154.19
2024-01-25T19:19:17.552Z,92150.81
2024-01-25T19:21:44.275Z,92149.03
2024-01-25T19:24:10.944Z,92161.13
2024-01-25T19:26:37.583Z,92159.91
2024-01-25T19:29:03.936Z,92168.13
2024-01-25T19:31:30.899Z,92160.84
2024-01-25T19:33:57.452Z,92162.16
2024-01-25T19:36:24.076Z,92156.88
2024-01-25T19:38:50.729Z,92162.56
2024-01-25T19:41:17.069Z,92161.22
2024-01-25T19:43:43.628Z,92158.16
2024-01-25T19:46:10.045Z,92166.19
2024-01-25T19:48:36.570Z,92170.00
2024-01-25T19:51:03.097Z,92162.84
2024-01-25T19:53:29.588Z,92167.13
2024-01-25T19:55:56.001Z,92169.50
2024-01-25T19:58:24.781Z,92175.81
2024-01-25T20:00:51.233Z,92180.41
2024-01-25T20:03:18.467Z,92180.25
2024-01-25T20:05:46.348Z,92173.84
2024-01-25T20:08:13.080Z,92178.09
2024-01-25T20:10:39.517Z,92185.91
2024-01-25T20:13:05.921Z,92182.38
2024-01-25T20:15:32.300Z,92171.84
2024-01-25T20:17:58.732Z,92182.56
2024-01-25T20:20:34.119Z,92184.13
2024-01-25T20:23:09.057Z,92183.81
2024-01-25T20:25:35.398Z,92189.09
2024-01-25T20:28:01.849Z,92187.88
2024-01-25T20:30:29.846Z,92189.34
2024-01-25T20:32:56.372Z,92174.06
2024-01-25T20:35:22.960Z,92182.34
2024-01-25T20:37:49.396Z,92176.97
2024-01-25T20:40:15.811Z,92181.13
2024-01-25T20:42:42.202Z,92171.63
2024-01-25T20:45:08.798Z,92169.00
2024-01-25T20:47:35.182Z,92177.97
2024-01-25T20:50:01.984Z,92177.91
2024-01-25T20:52:28.466Z,92183.22
2024-01-25T20:54:54.969Z,92174.38
2024-01-25T20:57:21.496Z,92177.97
2024-01-25T20:59:47.841Z,92190.53
2024-01-25T21:02:14.314Z,92191.75
2024-01-25T21:04:41.810Z,92187.13
2024-01-25T21:07:08.483Z,92187.28
2024-01-25T21:09:35.057Z,92185.34
2024-01-25T21:12:01.485Z,92195.66
2024-01-25T21:14:27.942Z,92188.09
2024-01-25T21:16:55.323Z,92187.00
2024-01-25T21:19:21.779Z,92194.09
2024-01-25T21:21:48.256Z,92193.16
2024-01-25T21:24:14.666Z,92206.78
2024-01-25T21:26:41.012Z,92203.72
2024-01-25T21:29:07.776Z,92203.38
2024-01-25T21:31:34.178Z,92206.38
2024-01-25T21:34:05.118Z,92198.94
2024-01-25T21:36:32.053Z,92206.50
2024-01-25T21:38:58.445Z,92209.41
2024-01-25T21:41:24.804Z,92208.63
2024-01-25T21:43:51.229Z,92214.00
2024-01-25T21:46:17.652Z,92214.84
2024-01-25T21:48:44.100Z,92209.50
2024-01-25T21:51:11.003Z,92199.75
2024-01-25T21:53:40.193Z,92207.16
2024-01-25T21:56:07.284Z,92204.59
2024-01-25T21:58:34.413Z,92202.78
2024-01-25T22:01:01.389Z,92212.81
2024-01-25T22:03:28.365Z,92204.91
2024-01-25T22:05:54.958Z,92204.72
2024-01-25T22:08:21.540Z,92220.91
2024-01-25T22:10:48.018Z,92216.34
2024-01-25T22:13:16.429Z,92219.19
2024-01-25T22:15:43.094Z,92214.56
2024-01-25T22:18:09.554Z,92217.69
2024-01-25T22:20:36.017Z,92215.19
2024-01-25T22:23:04.136Z,92218.63
2024-01-25T22:25:30.486Z,92231.59
2024-01-25T22:28:00.564Z,92227.44
2024-01-25T22:30:27.128Z,92235.75
2024-01-25T22:32:53.492Z,92237.44
2024-01-25T22:35:19.927Z,92228.16
2024-01-25T22:37:46.422Z,92230.38
2024-01-25T22:40:12.963Z,92232.47
2024-01-25T22:42:39.346Z,92221.78
2024-01-25T22:45:05.772Z,92240.00
2024-01-25T22:47:32.134Z,92237.19
2024-01-25T22:49:58.862Z,92241.16
2024-01-25T22:52:25.194Z,92241.34
2024-01-25T22:54:51.999Z,92240.16
2024-01-25T22:57:18.561Z,92235.25
2024-01-25T22:59:45.030Z,92239.16
2024-01-25T23:02:11.404Z,92244.28
2024-01-25T23:04:38.169Z,92252.81
2024-01-25T23:07:04.763Z,92258.97
2024-01-25T23:09:31.725Z,92258.47
2024-01-25T23:11:58.740Z,92258.78
2024-01-25T23:14:25.242Z,92265.75
2024-01-25T23:16:51.804Z,92263.88
2024-01-25T23:19:19.760Z,92264.09
2024-01-25T23:21:47.168Z,92263.63
2024-01-25T23:24:13.581Z,92253.84
2024-01-25T23:26:39.972Z,92250.34
2024-01-25T23:29:06.950Z,92248.03
2024-01-25T23:31:33.517Z,92235.72
2024-01-25T23:33:59.956Z,92237.81
2024-01-25T23:36:26.812Z,92239.78
2024-01-25T23:38:53.463Z,92235.53
2024-01-25T23:41:19.908Z,92226.16
2024-01-25T23:43:46.284Z,92218.13
2024-01-25T23:46:13.025Z,92219.84
2024-01-25T23:48:39.695Z,92229.19
2024-01-25T23:51:06.755Z,92229.97
2024-01-25T23:53:33.231Z,92219.84
2024-01-25T23:55:59.829Z,92228.19
2024-01-25T23:58:26.488Z,92218.19
